sensor_id;sensor_type;location;lat;lon;timestamp;P1;durP1;ratioP1;P2;durP2;ratioP2
30970;SDS011;17651;52.262;10.498;2022-12-29T00:01:21;4.32;;;3.03;;
30970;SDS011;17651;52.262;10.498;2022-12-29T00:03:32;2.42;;;1.50;;
30970;SDS011;17651;52.262;10.498;2022-12-29T00:05:43;2.53;;;2.20;;
30970;SDS011;17651;52.262;10.498;2022-12-29T00:07:55;2.67;;;1.92;;
30970;SDS011;17651;52.262;10.498;2022-12-29T00:10:06;4.43;;;1.90;;
30970;SDS011;17651;52.262;10.498;2022-12-29T00:12:17;2.17;;;1.98;;
30970;SDS011;17651;52.262;10.498;2022-12-29T00:14:28;2.65;;;2.25;;
30970;SDS011;17651;52.262;10.498;2022-12-29T00:16:58;3.50;;;1.98;;
30970;SDS011;17651;52.262;10.498;2022-12-29T00:19:09;4.95;;;2.35;;
30970;SDS011;17651;52.262;10.498;2022-12-29T00:21:40;2.53;;;1.80;;
30970;SDS011;17651;52.262;10.498;2022-12-29T00:24:15;2.97;;;2.00;;
30970;SDS011;17651;52.262;10.498;2022-12-29T00:26:35;4.88;;;2.20;;
30970;SDS011;17651;52.262;10.498;2022-12-29T00:31:35;2.20;;;1.90;;
30970;SDS011;17651;52.262;10.498;2022-12-29T00:34:06;2.08;;;1.75;;
30970;SDS011;17651;52.262;10.498;2022-12-29T00:36:38;3.55;;;2.13;;
30970;SDS011;17651;52.262;10.498;2022-12-29T00:38:51;2.90;;;1.80;;
30970;SDS011;17651;52.262;10.498;2022-12-29T00:41:21;2.75;;;1.77;;
30970;SDS011;17651;52.262;10.498;2022-12-29T00:43:52;4.63;;;1.83;;
30970;SDS011;17651;52.262;10.498;2022-12-29T00:46:16;2.72;;;2.03;;
30970;SDS011;17651;52.262;10.498;2022-12-29T00:48:27;2.08;;;1.85;;
30970;SDS011;17651;52.262;10.498;2022-12-29T00:50:56;3.85;;;1.65;;
30970;SDS011;17651;52.262;10.498;2022-12-29T00:53:07;5.35;;;1.50;;
30970;SDS011;17651;52.262;10.498;2022-12-29T00:55:19;1.60;;;1.50;;
30970;SDS011;17651;52.262;10.498;2022-12-29T00:57:31;4.30;;;2.28;;
30970;SDS011;17651;52.262;10.498;2022-12-29T00:59:42;2.78;;;2.17;;
30970;SDS011;17651;52.262;10.498;2022-12-29T01:01:54;2.33;;;2.10;;
30970;SDS011;17651;52.262;10.498;2022-12-29T01:04:05;2.38;;;1.70;;
30970;SDS011;17651;52.262;10.498;2022-12-29T01:06:17;1.60;;;1.50;;
30970;SDS011;17651;52.262;10.498;2022-12-29T01:08:28;3.50;;;1.83;;
30970;SDS011;17651;52.262;10.498;2022-12-29T01:10:39;3.30;;;1.85;;
30970;SDS011;17651;52.262;10.498;2022-12-29T01:12:50;3.40;;;2.10;;
30970;SDS011;17651;52.262;10.498;2022-12-29T01:15:01;1.92;;;1.73;;
30970;SDS011;17651;52.262;10.498;2022-12-29T01:17:12;2.58;;;2.05;;
30970;SDS011;17651;52.262;10.498;2022-12-29T01:19:23;1.95;;;1.45;;
30970;SDS011;17651;52.262;10.498;2022-12-29T01:21:35;3.55;;;2.67;;
30970;SDS011;17651;52.262;10.498;2022-12-29T01:23:46;4.30;;;2.00;;
30970;SDS011;17651;52.262;10.498;2022-12-29T01:25:57;3.22;;;1.90;;
30970;SDS011;17651;52.262;10.498;2022-12-29T01:28:08;1.95;;;1.80;;
30970;SDS011;17651;52.262;10.498;2022-12-29T01:30:19;4.10;;;1.88;;
30970;SDS011;17651;52.262;10.498;2022-12-29T01:32:30;2.85;;;1.95;;
30970;SDS011;17651;52.262;10.498;2022-12-29T01:34:42;2.15;;;1.80;;
30970;SDS011;17651;52.262;10.498;2022-12-29T01:36:53;2.20;;;1.95;;
30970;SDS011;17651;52.262;10.498;2022-12-29T01:39:04;1.38;;;1.30;;
30970;SDS011;17651;52.262;10.498;2022-12-29T01:41:16;2.78;;;2.05;;
30970;SDS011;17651;52.262;10.498;2022-12-29T01:45:53;5.38;;;2.60;;
30970;SDS011;17651;52.262;10.498;2022-12-29T01:48:04;2.70;;;1.73;;
30970;SDS011;17651;52.262;10.498;2022-12-29T01:50:29;3.53;;;1.70;;
30970;SDS011;17651;52.262;10.498;2022-12-29T01:52:42;3.42;;;2.08;;
30970;SDS011;17651;52.262;10.498;2022-12-29T01:54:55;3.25;;;1.77;;
30970;SDS011;17651;52.262;10.498;2022-12-29T01:57:13;6.00;;;2.17;;
30970;SDS011;17651;52.262;10.498;2022-12-29T01:59:28;3.55;;;1.90;;
30970;SDS011;17651;52.262;10.498;2022-12-29T02:01:40;3.17;;;2.10;;
30970;SDS011;17651;52.262;10.498;2022-12-29T02:03:51;4.20;;;1.80;;
30970;SDS011;17651;52.262;10.498;2022-12-29T02:06:08;2.33;;;1.60;;
30970;SDS011;17651;52.262;10.498;2022-12-29T02:08:22;3.28;;;2.25;;
30970;SDS011;17651;52.262;10.498;2022-12-29T02:10:34;3.65;;;1.85;;
30970;SDS011;17651;52.262;10.498;2022-12-29T02:12:46;2.63;;;1.88;;
30970;SDS011;17651;52.262;10.498;2022-12-29T02:14:58;4.05;;;2.22;;
30970;SDS011;17651;52.262;10.498;2022-12-29T02:24:16;2.75;;;1.90;;
30970;SDS011;17651;52.262;10.498;2022-12-29T02:26:49;4.80;;;2.22;;
30970;SDS011;17651;52.262;10.498;2022-12-29T02:29:18;9.35;;;2.58;;
30970;SDS011;17651;52.262;10.498;2022-12-29T02:31:50;2.58;;;2.28;;
30970;SDS011;17651;52.262;10.498;2022-12-29T02:34:08;4.75;;;2.67;;
30970;SDS011;17651;52.262;10.498;2022-12-29T02:36:33;5.22;;;2.70;;
30970;SDS011;17651;52.262;10.498;2022-12-29T02:39:04;3.55;;;2.25;;
30970;SDS011;17651;52.262;10.498;2022-12-29T02:41:19;4.38;;;2.47;;
30970;SDS011;17651;52.262;10.498;2022-12-29T02:43:37;5.88;;;3.08;;
30970;SDS011;17651;52.262;10.498;2022-12-29T02:48:08;8.38;;;3.80;;
30970;SDS011;17651;52.262;10.498;2022-12-29T02:53:04;6.13;;;3.80;;
30970;SDS011;17651;52.262;10.498;2022-12-29T02:55:13;9.45;;;4.10;;
30970;SDS011;17651;52.262;10.498;2022-12-29T02:59:35;7.30;;;5.35;;
30970;SDS011;17651;52.262;10.498;2022-12-29T03:02:02;9.18;;;4.32;;
30970;SDS011;17651;52.262;10.498;2022-12-29T03:04:36;4.63;;;3.35;;
30970;SDS011;17651;52.262;10.498;2022-12-29T03:09:39;6.20;;;3.85;;
30970;SDS011;17651;52.262;10.498;2022-12-29T03:11:58;8.20;;;3.03;;
30970;SDS011;17651;52.262;10.498;2022-12-29T03:14:24;7.93;;;3.17;;
30970;SDS011;17651;52.262;10.498;2022-12-29T03:16:58;5.28;;;3.22;;
30970;SDS011;17651;52.262;10.498;2022-12-29T03:19:15;6.13;;;4.07;;
30970;SDS011;17651;52.262;10.498;2022-12-29T03:22:12;6.65;;;3.95;;
30970;SDS011;17651;52.262;10.498;2022-12-29T03:24:26;5.38;;;3.35;;
30970;SDS011;17651;52.262;10.498;2022-12-29T03:26:40;8.35;;;3.40;;
30970;SDS011;17651;52.262;10.498;2022-12-29T03:28:52;4.60;;;3.28;;
30970;SDS011;17651;52.262;10.498;2022-12-29T03:31:08;6.53;;;2.30;;
30970;SDS011;17651;52.262;10.498;2022-12-29T03:33:21;14.45;;;4.50;;
30970;SDS011;17651;52.262;10.498;2022-12-29T03:35:34;3.83;;;2.63;;
30970;SDS011;17651;52.262;10.498;2022-12-29T03:40:24;6.20;;;2.92;;
30970;SDS011;17651;52.262;10.498;2022-12-29T03:42:37;3.58;;;2.53;;
30970;SDS011;17651;52.262;10.498;2022-12-29T03:44:49;3.28;;;2.30;;
30970;SDS011;17651;52.262;10.498;2022-12-29T03:47:05;4.80;;;2.50;;
30970;SDS011;17651;52.262;10.498;2022-12-29T03:49:16;2.97;;;2.10;;
30970;SDS011;17651;52.262;10.498;2022-12-29T03:51:27;6.70;;;2.80;;
30970;SDS011;17651;52.262;10.498;2022-12-29T03:53:38;4.72;;;2.63;;
30970;SDS011;17651;52.262;10.498;2022-12-29T03:55:50;3.42;;;2.42;;
30970;SDS011;17651;52.262;10.498;2022-12-29T03:58:01;3.45;;;2.33;;
30970;SDS011;17651;52.262;10.498;2022-12-29T04:00:31;5.38;;;2.63;;
30970;SDS011;17651;52.262;10.498;2022-12-29T04:02:42;4.18;;;2.65;;
30970;SDS011;17651;52.262;10.498;2022-12-29T04:04:58;3.67;;;2.13;;
30970;SDS011;17651;52.262;10.498;2022-12-29T04:07:09;3.95;;;2.33;;
30970;SDS011;17651;52.262;10.498;2022-12-29T04:09:20;4.40;;;2.50;;
30970;SDS011;17651;52.262;10.498;2022-12-29T04:11:33;4.03;;;2.20;;
30970;SDS011;17651;52.262;10.498;2022-12-29T04:13:45;4.55;;;2.60;;
30970;SDS011;17651;52.262;10.498;2022-12-29T04:16:00;6.32;;;2.78;;
30970;SDS011;17651;52.262;10.498;2022-12-29T04:18:12;3.53;;;2.45;;
30970;SDS011;17651;52.262;10.498;2022-12-29T04:20:24;3.53;;;2.53;;
30970;SDS011;17651;52.262;10.498;2022-12-29T04:23:03;5.13;;;2.50;;
30970;SDS011;17651;52.262;10.498;2022-12-29T04:25:16;3.30;;;2.38;;
30970;SDS011;17651;52.262;10.498;2022-12-29T04:27:27;4.63;;;2.15;;
30970;SDS011;17651;52.262;10.498;2022-12-29T04:29:57;9.70;;;2.50;;
30970;SDS011;17651;52.262;10.498;2022-12-29T04:32:31;2.95;;;2.08;;
30970;SDS011;17651;52.262;10.498;2022-12-29T04:34:42;3.33;;;2.45;;
30970;SDS011;17651;52.262;10.498;2022-12-29T04:36:53;8.25;;;3.30;;
30970;SDS011;17651;52.262;10.498;2022-12-29T04:39:05;4.55;;;2.78;;
30970;SDS011;17651;52.262;10.498;2022-12-29T04:41:17;4.25;;;2.50;;
30970;SDS011;17651;52.262;10.498;2022-12-29T04:43:29;4.65;;;2.33;;
30970;SDS011;17651;52.262;10.498;2022-12-29T04:46:03;3.08;;;2.50;;
30970;SDS011;17651;52.262;10.498;2022-12-29T04:48:22;2.35;;;1.73;;
30970;SDS011;17651;52.262;10.498;2022-12-29T04:50:48;3.60;;;1.80;;
30970;SDS011;17651;52.262;10.498;2022-12-29T04:53:02;3.65;;;1.35;;
30970;SDS011;17651;52.262;10.498;2022-12-29T04:55:13;1.90;;;1.60;;
30970;SDS011;17651;52.262;10.498;2022-12-29T04:57:24;2.00;;;1.50;;
30970;SDS011;17651;52.262;10.498;2022-12-29T04:59:39;2.65;;;1.63;;
30970;SDS011;17651;52.262;10.498;2022-12-29T05:01:52;3.95;;;1.60;;
30970;SDS011;17651;52.262;10.498;2022-12-29T05:04:03;1.40;;;1.30;;
30970;SDS011;17651;52.262;10.498;2022-12-29T05:06:14;1.80;;;1.60;;
30970;SDS011;17651;52.262;10.498;2022-12-29T05:08:26;2.35;;;1.15;;
30970;SDS011;17651;52.262;10.498;2022-12-29T05:10:37;1.13;;;1.00;;
30970;SDS011;17651;52.262;10.498;2022-12-29T05:12:54;1.95;;;1.23;;
30970;SDS011;17651;52.262;10.498;2022-12-29T05:15:07;1.20;;;1.10;;
30970;SDS011;17651;52.262;10.498;2022-12-29T05:17:18;1.80;;;1.17;;
30970;SDS011;17651;52.262;10.498;2022-12-29T05:19:29;2.47;;;1.30;;
30970;SDS011;17651;52.262;10.498;2022-12-29T05:21:41;2.08;;;1.27;;
30970;SDS011;17651;52.262;10.498;2022-12-29T05:23:52;1.42;;;1.10;;
30970;SDS011;17651;52.262;10.498;2022-12-29T05:26:03;2.70;;;1.83;;
30970;SDS011;17651;52.262;10.498;2022-12-29T05:28:29;2.60;;;1.50;;
30970;SDS011;17651;52.262;10.498;2022-12-29T05:30:51;1.48;;;1.20;;
30970;SDS011;17651;52.262;10.498;2022-12-29T05:33:03;1.85;;;1.30;;
30970;SDS011;17651;52.262;10.498;2022-12-29T05:35:16;2.60;;;1.42;;
30970;SDS011;17651;52.262;10.498;2022-12-29T05:37:27;1.15;;;1.05;;
30970;SDS011;17651;52.262;10.498;2022-12-29T05:39:38;1.08;;;1.00;;
30970;SDS011;17651;52.262;10.498;2022-12-29T05:41:51;1.38;;;1.27;;
30970;SDS011;17651;52.262;10.498;2022-12-29T05:44:21;4.00;;;1.35;;
30970;SDS011;17651;52.262;10.498;2022-12-29T05:46:39;1.80;;;1.20;;
30970;SDS011;17651;52.262;10.498;2022-12-29T05:48:54;1.35;;;1.20;;
30970;SDS011;17651;52.262;10.498;2022-12-29T05:51:13;2.22;;;1.05;;
30970;SDS011;17651;52.262;10.498;2022-12-29T05:53:30;1.70;;;0.90;;
30970;SDS011;17651;52.262;10.498;2022-12-29T05:55:43;1.85;;;1.27;;
30970;SDS011;17651;52.262;10.498;2022-12-29T05:57:56;2.90;;;1.45;;
30970;SDS011;17651;52.262;10.498;2022-12-29T06:00:07;1.35;;;1.08;;
30970;SDS011;17651;52.262;10.498;2022-12-29T06:02:24;2.22;;;1.40;;
30970;SDS011;17651;52.262;10.498;2022-12-29T06:04:36;1.85;;;1.50;;
30970;SDS011;17651;52.262;10.498;2022-12-29T06:06:47;2.78;;;1.67;;
30970;SDS011;17651;52.262;10.498;2022-12-29T06:09:09;3.28;;;2.25;;
30970;SDS011;17651;52.262;10.498;2022-12-29T06:11:20;3.65;;;2.10;;
30970;SDS011;17651;52.262;10.498;2022-12-29T06:13:38;6.28;;;1.90;;
30970;SDS011;17651;52.262;10.498;2022-12-29T06:15:50;3.35;;;2.08;;
30970;SDS011;17651;52.262;10.498;2022-12-29T06:18:02;3.08;;;1.67;;
30970;SDS011;17651;52.262;10.498;2022-12-29T06:20:14;4.13;;;1.55;;
30970;SDS011;17651;52.262;10.498;2022-12-29T06:22:26;2.22;;;1.48;;
30970;SDS011;17651;52.262;10.498;2022-12-29T06:24:37;3.95;;;1.63;;
30970;SDS011;17651;52.262;10.498;2022-12-29T06:26:49;5.03;;;1.80;;
30970;SDS011;17651;52.262;10.498;2022-12-29T06:29:00;3.17;;;2.30;;
30970;SDS011;17651;52.262;10.498;2022-12-29T06:31:13;4.10;;;1.75;;
30970;SDS011;17651;52.262;10.498;2022-12-29T06:33:24;2.05;;;1.40;;
30970;SDS011;17651;52.262;10.498;2022-12-29T06:35:36;1.48;;;1.08;;
30970;SDS011;17651;52.262;10.498;2022-12-29T06:37:48;2.83;;;1.75;;
30970;SDS011;17651;52.262;10.498;2022-12-29T06:39:59;4.80;;;1.60;;
30970;SDS011;17651;52.262;10.498;2022-12-29T06:42:18;1.65;;;1.55;;
30970;SDS011;17651;52.262;10.498;2022-12-29T06:44:47;5.35;;;1.15;;
30970;SDS011;17651;52.262;10.498;2022-12-29T06:46:59;2.17;;;1.02;;
30970;SDS011;17651;52.262;10.498;2022-12-29T06:49:10;1.45;;;1.10;;
30970;SDS011;17651;52.262;10.498;2022-12-29T06:51:21;2.05;;;1.58;;
30970;SDS011;17651;52.262;10.498;2022-12-29T06:53:32;2.58;;;1.63;;
30970;SDS011;17651;52.262;10.498;2022-12-29T06:55:43;2.50;;;1.55;;
30970;SDS011;17651;52.262;10.498;2022-12-29T06:57:55;2.20;;;1.50;;
30970;SDS011;17651;52.262;10.498;2022-12-29T07:00:06;4.07;;;1.60;;
30970;SDS011;17651;52.262;10.498;2022-12-29T07:02:18;6.53;;;1.40;;
30970;SDS011;17651;52.262;10.498;2022-12-29T07:04:29;2.00;;;1.25;;
30970;SDS011;17651;52.262;10.498;2022-12-29T07:06:40;5.45;;;1.40;;
30970;SDS011;17651;52.262;10.498;2022-12-29T07:08:51;1.10;;;1.00;;
30970;SDS011;17651;52.262;10.498;2022-12-29T07:11:05;1.35;;;0.95;;
30970;SDS011;17651;52.262;10.498;2022-12-29T07:13:16;2.53;;;1.17;;
30970;SDS011;17651;52.262;10.498;2022-12-29T07:15:27;1.67;;;0.93;;
30970;SDS011;17651;52.262;10.498;2022-12-29T07:17:38;1.95;;;1.20;;
30970;SDS011;17651;52.262;10.498;2022-12-29T07:19:49;2.15;;;1.13;;
30970;SDS011;17651;52.262;10.498;2022-12-29T07:22:00;1.75;;;1.02;;
30970;SDS011;17651;52.262;10.498;2022-12-29T07:24:12;2.28;;;1.30;;
30970;SDS011;17651;52.262;10.498;2022-12-29T07:26:23;1.52;;;1.20;;
30970;SDS011;17651;52.262;10.498;2022-12-29T07:28:34;3.50;;;1.63;;
30970;SDS011;17651;52.262;10.498;2022-12-29T07:30:46;2.75;;;1.70;;
30970;SDS011;17651;52.262;10.498;2022-12-29T07:32:57;2.03;;;1.33;;
30970;SDS011;17651;52.262;10.498;2022-12-29T07:35:08;2.42;;;1.25;;
30970;SDS011;17651;52.262;10.498;2022-12-29T07:37:19;1.45;;;1.10;;
30970;SDS011;17651;52.262;10.498;2022-12-29T07:39:30;3.78;;;1.10;;
30970;SDS011;17651;52.262;10.498;2022-12-29T07:41:41;1.85;;;1.00;;
30970;SDS011;17651;52.262;10.498;2022-12-29T07:44:00;2.55;;;0.98;;
30970;SDS011;17651;52.262;10.498;2022-12-29T07:46:37;1.52;;;1.33;;
30970;SDS011;17651;52.262;10.498;2022-12-29T07:48:48;3.67;;;1.20;;
30970;SDS011;17651;52.262;10.498;2022-12-29T07:50:59;4.15;;;1.30;;
30970;SDS011;17651;52.262;10.498;2022-12-29T07:53:10;1.65;;;1.55;;
30970;SDS011;17651;52.262;10.498;2022-12-29T07:55:21;1.00;;;0.90;;
30970;SDS011;17651;52.262;10.498;2022-12-29T07:57:32;1.13;;;0.85;;
30970;SDS011;17651;52.262;10.498;2022-12-29T07:59:43;0.73;;;0.73;;
30970;SDS011;17651;52.262;10.498;2022-12-29T08:01:55;0.77;;;0.77;;
30970;SDS011;17651;52.262;10.498;2022-12-29T08:04:06;2.00;;;1.00;;
30970;SDS011;17651;52.262;10.498;2022-12-29T08:06:17;1.33;;;0.85;;
30970;SDS011;17651;52.262;10.498;2022-12-29T08:08:28;0.70;;;0.70;;
30970;SDS011;17651;52.262;10.498;2022-12-29T08:10:39;0.93;;;0.70;;
30970;SDS011;17651;52.262;10.498;2022-12-29T08:12:50;0.70;;;0.70;;
30970;SDS011;17651;52.262;10.498;2022-12-29T08:15:01;0.70;;;0.70;;
30970;SDS011;17651;52.262;10.498;2022-12-29T08:17:13;2.80;;;0.88;;
30970;SDS011;17651;52.262;10.498;2022-12-29T08:19:24;0.80;;;0.70;;
30970;SDS011;17651;52.262;10.498;2022-12-29T08:21:35;0.73;;;0.73;;
30970;SDS011;17651;52.262;10.498;2022-12-29T08:23:47;1.20;;;1.10;;
30970;SDS011;17651;52.262;10.498;2022-12-29T08:25:58;1.00;;;0.90;;
30970;SDS011;17651;52.262;10.498;2022-12-29T08:28:10;1.10;;;1.02;;
30970;SDS011;17651;52.262;10.498;2022-12-29T08:30:21;1.20;;;1.10;;
30970;SDS011;17651;52.262;10.498;2022-12-29T08:32:32;1.33;;;1.13;;
30970;SDS011;17651;52.262;10.498;2022-12-29T08:34:43;1.40;;;1.30;;
30970;SDS011;17651;52.262;10.498;2022-12-29T08:36:54;0.88;;;0.88;;
30970;SDS011;17651;52.262;10.498;2022-12-29T08:39:06;1.75;;;1.13;;
30970;SDS011;17651;52.262;10.498;2022-12-29T08:41:17;1.25;;;1.00;;
30970;SDS011;17651;52.262;10.498;2022-12-29T08:43:28;1.00;;;1.00;;
30970;SDS011;17651;52.262;10.498;2022-12-29T08:45:39;1.48;;;0.90;;
30970;SDS011;17651;52.262;10.498;2022-12-29T08:47:51;0.70;;;0.70;;
30970;SDS011;17651;52.262;10.498;2022-12-29T08:50:02;1.90;;;1.00;;
30970;SDS011;17651;52.262;10.498;2022-12-29T08:52:13;1.30;;;0.82;;
30970;SDS011;17651;52.262;10.498;2022-12-29T08:54:24;0.95;;;0.85;;
30970;SDS011;17651;52.262;10.498;2022-12-29T08:56:35;0.88;;;0.88;;
30970;SDS011;17651;52.262;10.498;2022-12-29T08:58:47;2.58;;;0.80;;
30970;SDS011;17651;52.262;10.498;2022-12-29T09:01:01;0.95;;;0.73;;
30970;SDS011;17651;52.262;10.498;2022-12-29T09:03:12;0.93;;;0.90;;
30970;SDS011;17651;52.262;10.498;2022-12-29T09:05:23;1.02;;;0.93;;
30970;SDS011;17651;52.262;10.498;2022-12-29T09:07:34;1.02;;;0.95;;
30970;SDS011;17651;52.262;10.498;2022-12-29T09:09:45;0.73;;;0.73;;
30970;SDS011;17651;52.262;10.498;2022-12-29T09:11:56;0.95;;;0.90;;
30970;SDS011;17651;52.262;10.498;2022-12-29T09:14:07;0.80;;;0.80;;
30970;SDS011;17651;52.262;10.498;2022-12-29T09:16:20;1.15;;;0.80;;
30970;SDS011;17651;52.262;10.498;2022-12-29T09:18:31;1.00;;;0.80;;
30970;SDS011;17651;52.262;10.498;2022-12-29T09:20:42;2.70;;;1.00;;
30970;SDS011;17651;52.262;10.498;2022-12-29T09:22:53;2.10;;;1.15;;
30970;SDS011;17651;52.262;10.498;2022-12-29T09:25:04;1.40;;;0.90;;
30970;SDS011;17651;52.262;10.498;2022-12-29T09:27:15;2.25;;;1.10;;
30970;SDS011;17651;52.262;10.498;2022-12-29T09:29:27;1.50;;;1.00;;
30970;SDS011;17651;52.262;10.498;2022-12-29T09:31:38;0.82;;;0.82;;
30970;SDS011;17651;52.262;10.498;2022-12-29T09:33:49;3.35;;;1.70;;
30970;SDS011;17651;52.262;10.498;2022-12-29T09:36:00;1.38;;;0.93;;
30970;SDS011;17651;52.262;10.498;2022-12-29T09:38:11;2.35;;;1.15;;
30970;SDS011;17651;52.262;10.498;2022-12-29T09:40:29;0.88;;;0.85;;
30970;SDS011;17651;52.262;10.498;2022-12-29T09:42:43;1.87;;;1.00;;
30970;SDS011;17651;52.262;10.498;2022-12-29T09:47:08;1.55;;;1.02;;
30970;SDS011;17651;52.262;10.498;2022-12-29T09:52:05;2.20;;;1.50;;
30970;SDS011;17651;52.262;10.498;2022-12-29T09:54:24;2.87;;;1.60;;
30970;SDS011;17651;52.262;10.498;2022-12-29T09:56:38;2.25;;;1.58;;
30970;SDS011;17651;52.262;10.498;2022-12-29T10:03:36;1.42;;;1.27;;
30970;SDS011;17651;52.262;10.498;2022-12-29T10:06:05;3.88;;;2.05;;
30970;SDS011;17651;52.262;10.498;2022-12-29T10:10:43;1.67;;;1.40;;
30970;SDS011;17651;52.262;10.498;2022-12-29T10:15:28;4.95;;;1.30;;
30970;SDS011;17651;52.262;10.498;2022-12-29T10:20:05;2.55;;;1.30;;
30970;SDS011;17651;52.262;10.498;2022-12-29T10:24:49;1.63;;;1.40;;
30970;SDS011;17651;52.262;10.498;2022-12-29T10:27:02;0.95;;;0.90;;
30970;SDS011;17651;52.262;10.498;2022-12-29T10:29:16;2.20;;;1.05;;
30970;SDS011;17651;52.262;10.498;2022-12-29T10:31:45;1.40;;;0.98;;
30970;SDS011;17651;52.262;10.498;2022-12-29T10:33:57;1.17;;;1.05;;
30970;SDS011;17651;52.262;10.498;2022-12-29T10:36:14;3.22;;;0.88;;
30970;SDS011;17651;52.262;10.498;2022-12-29T10:38:38;1.63;;;0.80;;
30970;SDS011;17651;52.262;10.498;2022-12-29T10:40:51;2.42;;;1.50;;
30970;SDS011;17651;52.262;10.498;2022-12-29T10:43:07;2.63;;;0.80;;
30970;SDS011;17651;52.262;10.498;2022-12-29T10:45:25;1.05;;;0.80;;
30970;SDS011;17651;52.262;10.498;2022-12-29T10:47:42;1.52;;;0.68;;
30970;SDS011;17651;52.262;10.498;2022-12-29T10:49:58;0.70;;;0.70;;
30970;SDS011;17651;52.262;10.498;2022-12-29T10:52:10;1.27;;;0.90;;
30970;SDS011;17651;52.262;10.498;2022-12-29T10:56:40;0.63;;;0.60;;
30970;SDS011;17651;52.262;10.498;2022-12-29T10:58:55;0.82;;;0.70;;
30970;SDS011;17651;52.262;10.498;2022-12-29T11:01:07;2.15;;;0.90;;
30970;SDS011;17651;52.262;10.498;2022-12-29T11:03:39;1.27;;;0.73;;
30970;SDS011;17651;52.262;10.498;2022-12-29T11:05:53;0.82;;;0.80;;
30970;SDS011;17651;52.262;10.498;2022-12-29T11:08:17;1.67;;;0.75;;
30970;SDS011;17651;52.262;10.498;2022-12-29T11:10:41;0.82;;;0.75;;
30970;SDS011;17651;52.262;10.498;2022-12-29T11:13:01;1.45;;;0.80;;
30970;SDS011;17651;52.262;10.498;2022-12-29T11:15:14;2.25;;;0.80;;
30970;SDS011;17651;52.262;10.498;2022-12-29T11:17:26;2.60;;;0.70;;
30970;SDS011;17651;52.262;10.498;2022-12-29T11:19:37;0.95;;;0.77;;
30970;SDS011;17651;52.262;10.498;2022-12-29T11:21:48;1.17;;;0.70;;
30970;SDS011;17651;52.262;10.498;2022-12-29T11:24:03;1.05;;;0.70;;
30970;SDS011;17651;52.262;10.498;2022-12-29T11:26:21;2.38;;;1.00;;
30970;SDS011;17651;52.262;10.498;2022-12-29T11:28:32;2.67;;;0.75;;
30970;SDS011;17651;52.262;10.498;2022-12-29T11:30:44;0.95;;;0.45;;
30970;SDS011;17651;52.262;10.498;2022-12-29T11:32:55;4.88;;;0.88;;
30970;SDS011;17651;52.262;10.498;2022-12-29T11:35:13;1.23;;;1.05;;
30970;SDS011;17651;52.262;10.498;2022-12-29T11:39:43;3.03;;;1.08;;
30970;SDS011;17651;52.262;10.498;2022-12-29T11:41:58;0.95;;;0.75;;
30970;SDS011;17651;52.262;10.498;2022-12-29T11:44:10;2.72;;;1.05;;
30970;SDS011;17651;52.262;10.498;2022-12-29T11:46:44;3.78;;;1.00;;
30970;SDS011;17651;52.262;10.498;2022-12-29T11:48:54;2.90;;;0.73;;
30970;SDS011;17651;52.262;10.498;2022-12-29T11:51:08;0.98;;;0.80;;
30970;SDS011;17651;52.262;10.498;2022-12-29T11:53:25;2.80;;;0.80;;
30970;SDS011;17651;52.262;10.498;2022-12-29T11:55:37;1.58;;;0.90;;
30970;SDS011;17651;52.262;10.498;2022-12-29T11:57:49;2.10;;;0.90;;
30970;SDS011;17651;52.262;10.498;2022-12-29T12:00:03;1.38;;;0.88;;
30970;SDS011;17651;52.262;10.498;2022-12-29T12:02:27;5.38;;;1.27;;
30970;SDS011;17651;52.262;10.498;2022-12-29T12:04:41;1.25;;;0.90;;
30970;SDS011;17651;52.262;10.498;2022-12-29T12:09:08;3.85;;;1.25;;
30970;SDS011;17651;52.262;10.498;2022-12-29T12:11:25;3.17;;;1.15;;
30970;SDS011;17651;52.262;10.498;2022-12-29T12:13:58;0.98;;;0.90;;
30970;SDS011;17651;52.262;10.498;2022-12-29T12:16:21;2.53;;;0.82;;
30970;SDS011;17651;52.262;10.498;2022-12-29T12:18:38;1.35;;;0.98;;
30970;SDS011;17651;52.262;10.498;2022-12-29T12:20:52;1.55;;;0.80;;
30970;SDS011;17651;52.262;10.498;2022-12-29T12:25:30;2.10;;;0.70;;
30970;SDS011;17651;52.262;10.498;2022-12-29T12:27:57;3.35;;;0.90;;
30970;SDS011;17651;52.262;10.498;2022-12-29T12:30:21;5.15;;;1.10;;
30970;SDS011;17651;52.262;10.498;2022-12-29T12:34:47;3.47;;;1.30;;
30970;SDS011;17651;52.262;10.498;2022-12-29T12:39:48;2.75;;;1.30;;
30970;SDS011;17651;52.262;10.498;2022-12-29T12:42:04;2.00;;;1.10;;
30970;SDS011;17651;52.262;10.498;2022-12-29T12:48:55;3.05;;;1.00;;
30970;SDS011;17651;52.262;10.498;2022-12-29T13:01:00;1.38;;;1.00;;
30970;SDS011;17651;52.262;10.498;2022-12-29T13:03:19;2.92;;;1.15;;
30970;SDS011;17651;52.262;10.498;2022-12-29T13:10:42;3.83;;;1.40;;
30970;SDS011;17651;52.262;10.498;2022-12-29T13:17:52;2.17;;;1.10;;
30970;SDS011;17651;52.262;10.498;2022-12-29T13:27:01;2.53;;;1.52;;
30970;SDS011;17651;52.262;10.498;2022-12-29T13:29:17;11.23;;;1.50;;
30970;SDS011;17651;52.262;10.498;2022-12-29T13:31:42;1.67;;;1.20;;
30970;SDS011;17651;52.262;10.498;2022-12-29T13:34:00;1.77;;;1.10;;
30970;SDS011;17651;52.262;10.498;2022-12-29T13:36:20;6.70;;;1.50;;
30970;SDS011;17651;52.262;10.498;2022-12-29T13:38:34;3.95;;;1.15;;
30970;SDS011;17651;52.262;10.498;2022-12-29T13:40:46;1.58;;;0.93;;
30970;SDS011;17651;52.262;10.498;2022-12-29T13:43:00;4.10;;;1.27;;
30970;SDS011;17651;52.262;10.498;2022-12-29T13:45:24;1.58;;;0.90;;
30970;SDS011;17651;52.262;10.498;2022-12-29T13:47:40;3.17;;;1.40;;
30970;SDS011;17651;52.262;10.498;2022-12-29T13:49:53;4.10;;;1.58;;
30970;SDS011;17651;52.262;10.498;2022-12-29T13:57:28;4.50;;;1.40;;
30970;SDS011;17651;52.262;10.498;2022-12-29T14:02:13;5.55;;;1.23;;
30970;SDS011;17651;52.262;10.498;2022-12-29T14:04:27;2.45;;;1.38;;
30970;SDS011;17651;52.262;10.498;2022-12-29T14:06:38;5.53;;;1.42;;
30970;SDS011;17651;52.262;10.498;2022-12-29T14:08:54;2.90;;;1.25;;
30970;SDS011;17651;52.262;10.498;2022-12-29T14:11:15;4.22;;;1.52;;
30970;SDS011;17651;52.262;10.498;2022-12-29T14:13:26;1.83;;;1.38;;
30970;SDS011;17651;52.262;10.498;2022-12-29T14:15:38;4.13;;;1.38;;
30970;SDS011;17651;52.262;10.498;2022-12-29T14:18:09;4.80;;;1.55;;
30970;SDS011;17651;52.262;10.498;2022-12-29T14:20:22;3.50;;;1.77;;
30970;SDS011;17651;52.262;10.498;2022-12-29T14:22:33;3.22;;;1.30;;
30970;SDS011;17651;52.262;10.498;2022-12-29T14:24:44;4.90;;;1.95;;
30970;SDS011;17651;52.262;10.498;2022-12-29T14:26:56;3.22;;;1.60;;
30970;SDS011;17651;52.262;10.498;2022-12-29T14:31:36;4.55;;;2.05;;
30970;SDS011;17651;52.262;10.498;2022-12-29T14:36:25;3.67;;;1.52;;
30970;SDS011;17651;52.262;10.498;2022-12-29T14:38:37;4.20;;;1.60;;
30970;SDS011;17651;52.262;10.498;2022-12-29T14:43:50;3.13;;;1.27;;
30970;SDS011;17651;52.262;10.498;2022-12-29T14:46:02;5.22;;;1.45;;
30970;SDS011;17651;52.262;10.498;2022-12-29T14:50:43;8.40;;;1.65;;
30970;SDS011;17651;52.262;10.498;2022-12-29T14:52:58;3.55;;;1.27;;
30970;SDS011;17651;52.262;10.498;2022-12-29T14:57:37;5.15;;;1.23;;
30970;SDS011;17651;52.262;10.498;2022-12-29T14:59:48;5.50;;;1.60;;
30970;SDS011;17651;52.262;10.498;2022-12-29T15:02:19;5.13;;;1.30;;
30970;SDS011;17651;52.262;10.498;2022-12-29T15:04:31;2.08;;;1.52;;
30970;SDS011;17651;52.262;10.498;2022-12-29T15:06:43;4.53;;;1.90;;
30970;SDS011;17651;52.262;10.498;2022-12-29T15:09:41;2.55;;;1.40;;
30970;SDS011;17651;52.262;10.498;2022-12-29T15:14:00;3.95;;;1.77;;